createdAt,value
2023-03-02T00:02:22.478Z,12.43
2023-03-02T00:04:48.699Z,11.97
2023-03-02T00:10:26.405Z,11.37
2023-03-02T00:12:48.870Z,12.90
2023-03-02T00:15:12.101Z,13.77
2023-03-02T00:17:34.756Z,13.27
2023-03-02T00:20:11.248Z,12.90
2023-03-02T00:22:35.942Z,12.97
2023-03-02T00:25:01.829Z,14.63
2023-03-02T00:27:24.802Z,13.60
2023-03-02T00:29:47.531Z,13.07
2023-03-02T00:32:11.833Z,12.70
2023-03-02T00:34:34.381Z,12.67
2023-03-02T00:36:57.988Z,14.33
2023-03-02T00:39:47.272Z,11.60
2023-03-02T00:42:10.027Z,14.33
2023-03-02T00:44:41.845Z,13.50
2023-03-02T00:47:07.128Z,11.70
2023-03-02T00:49:35.092Z,11.70
2023-03-02T00:52:01.044Z,14.83
2023-03-02T00:54:26.684Z,11.20
2023-03-02T00:59:58.285Z,12.33
2023-03-02T01:02:27.479Z,13.93
2023-03-02T01:04:50.544Z,12.47
2023-03-02T01:07:15.101Z,12.07
2023-03-02T01:09:38.668Z,11.33
2023-03-02T01:12:13.475Z,11.60
2023-03-02T01:17:19.291Z,13.70
2023-03-02T01:19:41.978Z,15.30
2023-03-02T01:22:04.897Z,12.80
2023-03-02T01:24:27.482Z,12.30
2023-03-02T01:26:50.064Z,12.70
2023-03-02T01:29:12.841Z,13.60
2023-03-02T01:31:36.934Z,13.83
2023-03-02T01:34:02.515Z,11.73
2023-03-02T01:36:25.131Z,11.73
2023-03-02T01:38:54.436Z,12.17
2023-03-02T01:41:18.433Z,13.90
2023-03-02T01:43:41.340Z,14.03
2023-03-02T01:46:06.816Z,15.33
2023-03-02T01:48:47.496Z,13.03
2023-03-02T01:51:27.877Z,13.80
2023-03-02T01:54:17.381Z,13.30
2023-03-02T01:56:43.847Z,15.73
2023-03-02T01:59:08.354Z,14.63
2023-03-02T02:01:35.854Z,15.00
2023-03-02T02:03:59.497Z,16.57
2023-03-02T02:06:46.133Z,13.80
2023-03-02T02:09:17.459Z,15.23
2023-03-02T02:11:49.315Z,15.63
2023-03-02T02:14:12.096Z,16.10
2023-03-02T02:16:35.448Z,14.63
2023-03-02T02:18:58.667Z,13.57
2023-03-02T02:21:22.068Z,12.60
2023-03-02T02:24:10.825Z,12.50
2023-03-02T02:26:35.482Z,11.73
2023-03-02T02:29:14.784Z,12.13
2023-03-02T02:31:49.780Z,13.97
2023-03-02T02:34:31.179Z,14.20
2023-03-02T02:37:00.339Z,14.20
2023-03-02T02:39:25.783Z,12.53
2023-03-02T02:41:50.190Z,13.47
2023-03-02T02:44:17.235Z,15.10
2023-03-02T02:46:40.099Z,13.30
2023-03-02T02:49:09.526Z,17.80
2023-03-02T02:51:35.756Z,15.43
2023-03-02T02:53:59.914Z,14.57
2023-03-02T02:56:35.524Z,13.13
2023-03-02T02:59:17.045Z,15.27
2023-03-02T03:01:40.181Z,13.63
2023-03-02T03:04:05.981Z,13.27
2023-03-02T03:06:38.469Z,13.27
2023-03-02T03:09:02.053Z,14.37
2023-03-02T03:11:32.358Z,15.00
2023-03-02T03:14:36.017Z,13.43
2023-03-02T03:17:12.051Z,13.33
2023-03-02T03:19:39.469Z,13.90
2023-03-02T03:22:13.230Z,14.00
2023-03-02T03:24:39.206Z,16.17
2023-03-02T03:27:05.464Z,13.37
2023-03-02T03:29:31.805Z,16.30
2023-03-02T03:32:07.200Z,13.97
2023-03-02T03:37:24.553Z,16.07
2023-03-02T03:39:47.568Z,16.90
2023-03-02T03:42:14.472Z,16.97
2023-03-02T03:44:37.318Z,13.87
2023-03-02T03:47:08.878Z,14.60
2023-03-02T03:49:31.856Z,15.97
2023-03-02T03:51:54.634Z,14.53
2023-03-02T03:54:17.668Z,15.63
2023-03-02T03:56:46.549Z,16.73
2023-03-02T03:59:11.143Z,15.20
2023-03-02T04:01:43.634Z,15.73
2023-03-02T04:04:07.827Z,15.27
2023-03-02T04:06:30.449Z,15.63
2023-03-02T04:08:53.321Z,16.87
2023-03-02T04:11:16.082Z,17.50
2023-03-02T04:13:38.840Z,15.20
2023-03-02T04:16:01.499Z,14.83
2023-03-02T04:18:25.063Z,17.53
2023-03-02T04:21:31.162Z,16.40
2023-03-02T04:23:55.805Z,14.90
2023-03-02T04:26:22.978Z,14.60
2023-03-02T04:29:04.602Z,15.23
2023-03-02T04:31:28.281Z,15.70
2023-03-02T04:33:51.363Z,13.93
2023-03-02T04:39:09.751Z,17.10
2023-03-02T04:41:32.500Z,16.50
2023-03-02T04:43:54.911Z,16.07
2023-03-02T04:46:19.338Z,15.60
2023-03-02T04:48:41.880Z,16.27
2023-03-02T04:51:07.360Z,18.77
2023-03-02T04:53:32.719Z,17.77
2023-03-02T04:55:55.561Z,16.13
2023-03-02T04:58:31.501Z,19.33
2023-03-02T05:01:02.274Z,16.83
2023-03-02T05:03:25.228Z,18.77
2023-03-02T05:05:48.102Z,16.27
2023-03-02T05:11:43.903Z,17.33
2023-03-02T05:14:10.520Z,17.27
2023-03-02T05:16:34.850Z,19.60
2023-03-02T05:21:37.562Z,16.27
2023-03-02T05:24:25.617Z,17.53
2023-03-02T05:26:51.530Z,16.23
2023-03-02T05:29:14.218Z,18.73
2023-03-02T05:31:42.110Z,15.50
2023-03-02T05:34:21.666Z,17.83
2023-03-02T05:36:45.687Z,16.53
2023-03-02T05:39:11.897Z,16.53
2023-03-02T05:41:37.275Z,20.00
2023-03-02T05:43:59.906Z,20.33
2023-03-02T05:46:30.289Z,16.40
2023-03-02T05:48:56.560Z,19.33
2023-03-02T05:51:34.594Z,19.67
2023-03-02T05:53:57.514Z,17.13
2023-03-02T05:56:22.466Z,16.77
2023-03-02T05:58:46.423Z,19.93
2023-03-02T06:01:17.280Z,17.97
2023-03-02T06:03:39.839Z,18.93
2023-03-02T06:06:04.870Z,18.40
2023-03-02T06:08:27.896Z,16.47
2023-03-02T06:10:56.785Z,17.33
2023-03-02T06:13:46.908Z,19.17
2023-03-02T06:16:20.081Z,20.13
2023-03-02T06:18:45.194Z,16.60
2023-03-02T06:24:40.254Z,17.07
2023-03-02T06:27:21.945Z,18.47
2023-03-02T06:29:44.575Z,19.57
2023-03-02T06:32:14.694Z,18.00
2023-03-02T06:34:37.452Z,18.47
2023-03-02T06:36:59.921Z,18.50
2023-03-02T06:39:22.408Z,17.20
2023-03-02T06:41:46.162Z,15.97
2023-03-02T06:44:10.454Z,18.90
2023-03-02T06:49:51.674Z,15.93
2023-03-02T06:52:14.729Z,16.53
2023-03-02T06:54:37.548Z,20.53
2023-03-02T06:57:03.012Z,18.70
2023-03-02T07:03:02.495Z,17.07
2023-03-02T07:05:39.694Z,14.90
2023-03-02T07:08:02.872Z,18.47
2023-03-02T07:10:46.630Z,17.27
2023-03-02T07:13:09.513Z,18.73
2023-03-02T07:20:14.265Z,17.67
2023-03-02T07:22:39.054Z,18.33
2023-03-02T07:25:05.707Z,19.57
2023-03-02T07:27:31.195Z,15.77
2023-03-02T07:47:49.402Z,17.03
2023-03-02T07:59:17.380Z,14.53
2023-03-02T08:01:23.310Z,15.67
2023-03-02T08:04:16.724Z,14.63
2023-03-02T08:13:35.621Z,17.00
2023-03-02T08:18:41.434Z,17.37
2023-03-02T08:21:21.216Z,13.10
2023-03-02T08:24:12.535Z,15.40
2023-03-02T08:26:44.150Z,15.97
2023-03-02T08:31:51.041Z,18.57
2023-03-02T08:37:02.633Z,14.10
2023-03-02T08:40:12.549Z,15.43
2023-03-02T08:42:33.885Z,15.00
2023-03-02T08:47:36.740Z,14.03
2023-03-02T08:50:02.988Z,16.20
2023-03-02T08:52:28.361Z,14.40
2023-03-02T08:54:51.201Z,16.27
2023-03-02T08:57:13.684Z,15.37
2023-03-02T08:59:41.925Z,15.27
2023-03-02T09:02:09.505Z,13.97
2023-03-02T09:04:32.293Z,14.90
2023-03-02T09:06:54.902Z,16.53
2023-03-02T09:09:29.726Z,13.70
2023-03-02T09:12:04.108Z,12.03
2023-03-02T09:14:29.952Z,15.10
2023-03-02T09:16:56.387Z,17.03
2023-03-02T09:22:00.617Z,15.17
2023-03-02T09:24:23.184Z,13.10
2023-03-02T09:26:45.594Z,15.40
2023-03-02T09:29:10.910Z,15.13
2023-03-02T09:31:36.167Z,15.73
2023-03-02T09:33:59.080Z,15.40
2023-03-02T09:36:25.826Z,14.10
2023-03-02T09:38:53.337Z,14.97
2023-03-02T09:41:21.934Z,14.13
2023-03-02T09:43:48.269Z,13.83
2023-03-02T09:46:33.226Z,14.47
2023-03-02T09:49:12.791Z,13.00
2023-03-02T09:51:54.531Z,14.10
2023-03-02T09:54:25.495Z,16.13
2023-03-02T09:56:59.497Z,13.67
2023-03-02T09:59:44.221Z,12.97
2023-03-02T10:02:25.759Z,11.77
2023-03-02T10:04:53.479Z,13.80
2023-03-02T10:07:23.612Z,14.50
2023-03-02T10:09:49.259Z,12.93
2023-03-02T10:12:30.462Z,15.67
2023-03-02T10:14:58.577Z,14.93
2023-03-02T10:17:41.012Z,14.57
2023-03-02T10:20:05.304Z,13.53
2023-03-02T10:22:34.082Z,14.03
2023-03-02T10:25:23.268Z,14.03
2023-03-02T10:27:54.072Z,12.73
2023-03-02T10:30:25.924Z,13.07
2023-03-02T10:33:00.441Z,16.63
2023-03-02T10:35:24.809Z,13.60
2023-03-02T10:37:48.549Z,14.03
2023-03-02T10:40:32.048Z,12.87
2023-03-02T10:42:56.343Z,21.93
2023-03-02T10:45:25.217Z,15.43
2023-03-02T10:48:00.496Z,15.00
2023-03-02T10:50:25.854Z,16.07
2023-03-02T10:53:00.162Z,13.60
2023-03-02T10:55:23.955Z,13.83
2023-03-02T10:57:48.849Z,13.43
2023-03-02T11:00:19.453Z,16.33
2023-03-02T11:03:03.378Z,13.30
2023-03-02T11:05:37.015Z,16.20
2023-03-02T11:08:09.404Z,14.20
2023-03-02T11:10:34.375Z,20.10
2023-03-02T11:12:58.174Z,13.00
2023-03-02T11:15:20.574Z,16.47
2023-03-02T11:17:44.359Z,14.77
2023-03-02T11:20:13.464Z,17.93
2023-03-02T11:22:46.412Z,13.13
2023-03-02T11:25:25.878Z,15.43
2023-03-02T11:27:51.298Z,14.97
2023-03-02T11:30:19.977Z,16.93
2023-03-02T11:33:15.273Z,14.80
2023-03-02T11:35:40.354Z,15.13
2023-03-02T11:38:22.267Z,14.17
2023-03-02T11:41:06.429Z,11.87
2023-03-02T11:43:29.257Z,11.57
2023-03-02T11:46:10.927Z,15.03
2023-03-02T11:48:33.893Z,12.97
2023-03-02T11:51:00.954Z,15.87
2023-03-02T11:53:25.031Z,12.83
2023-03-02T11:55:49.754Z,12.13
2023-03-02T11:58:20.448Z,13.40
2023-03-02T12:00:45.890Z,14.83
2023-03-02T12:03:20.111Z,14.10
2023-03-02T12:05:45.031Z,17.33
2023-03-02T12:08:09.470Z,13.40
2023-03-02T12:10:37.438Z,13.47
2023-03-02T12:13:18.319Z,13.73
2023-03-02T12:15:42.695Z,12.77
2023-03-02T12:18:24.006Z,13.50
2023-03-02T12:20:46.519Z,12.87
2023-03-02T12:23:11.095Z,15.27
2023-03-02T12:25:51.275Z,15.33
2023-03-02T12:28:28.274Z,14.30
2023-03-02T12:31:05.836Z,12.00
2023-03-02T12:33:28.694Z,11.77
2023-03-02T12:36:01.884Z,12.97
2023-03-02T12:38:29.686Z,14.47
2023-03-02T12:41:01.393Z,15.83
2023-03-02T12:43:44.414Z,14.17
2023-03-02T12:46:12.942Z,15.50
2023-03-02T12:48:43.168Z,13.07
2023-03-02T12:51:06.345Z,10.87
2023-03-02T12:53:28.869Z,11.37
2023-03-02T12:55:51.410Z,11.70
2023-03-02T12:58:18.185Z,12.17
2023-03-02T13:00:41.336Z,14.07
2023-03-02T13:03:07.001Z,15.47
2023-03-02T13:05:30.801Z,12.50
2023-03-02T13:08:16.289Z,13.97
2023-03-02T13:10:40.735Z,12.17
2023-03-02T13:13:03.894Z,14.60
2023-03-02T13:15:26.238Z,12.47
2023-03-02T13:17:54.530Z,11.97
2023-03-02T13:20:16.923Z,15.13
2023-03-02T13:22:39.452Z,15.43
2023-03-02T13:25:03.810Z,11.43
2023-03-02T13:27:26.147Z,12.70
2023-03-02T13:29:49.858Z,15.00
2023-03-02T13:32:19.843Z,14.93
2023-03-02T13:34:46.725Z,14.70
2023-03-02T13:37:19.083Z,13.53
2023-03-02T13:39:44.290Z,13.17
2023-03-02T13:42:08.790Z,12.97
2023-03-02T13:44:32.333Z,15.87
2023-03-02T13:46:54.857Z,15.23
2023-03-02T13:49:28.006Z,16.23
2023-03-02T13:51:50.495Z,12.97
2023-03-02T13:54:21.068Z,13.83
2023-03-02T13:56:44.240Z,16.00
2023-03-02T13:59:12.185Z,15.57
2023-03-02T14:01:34.434Z,13.17
2023-03-02T14:03:57.455Z,14.87
2023-03-02T14:06:19.909Z,12.33
2023-03-02T14:08:42.188Z,13.73
2023-03-02T14:11:04.734Z,14.03
2023-03-02T14:13:31.601Z,12.93
2023-03-02T14:15:55.870Z,13.20
2023-03-02T14:18:33.304Z,14.57
2023-03-02T14:20:56.503Z,16.53
2023-03-02T14:23:18.824Z,11.53
2023-03-02T14:25:41.288Z,14.27
2023-03-02T14:28:04.020Z,14.35
2023-03-02T14:30:27.935Z,15.63
2023-03-02T14:32:52.618Z,14.23
2023-03-02T14:35:16.753Z,15.10
2023-03-02T14:37:41.952Z,19.33
2023-03-02T14:40:06.381Z,16.80
2023-03-02T14:42:28.865Z,11.83
2023-03-02T14:44:51.688Z,14.53
2023-03-02T14:47:16.510Z,13.60
2023-03-02T14:49:39.269Z,15.80
2023-03-02T14:52:05.392Z,12.40
2023-03-02T14:54:28.325Z,13.80
2023-03-02T14:56:50.697Z,12.33
2023-03-02T15:01:50.771Z,11.67
2023-03-02T15:04:13.074Z,14.77
2023-03-02T15:06:38.179Z,12.67
2023-03-02T15:09:01.576Z,15.17
2023-03-02T15:11:24.219Z,12.73
2023-03-02T15:13:46.505Z,11.90
2023-03-02T15:16:12.076Z,15.30
2023-03-02T15:18:35.900Z,12.70
2023-03-02T15:20:58.149Z,11.67
2023-03-02T15:23:20.406Z,12.90
2023-03-02T15:25:43.298Z,11.30
2023-03-02T15:28:05.663Z,15.37
2023-03-02T15:30:30.491Z,15.03
2023-03-02T15:32:54.679Z,11.67
2023-03-02T15:35:17.027Z,13.63
2023-03-02T15:37:39.800Z,12.07
2023-03-02T15:40:02.276Z,15.37
2023-03-02T15:42:24.534Z,12.60
2023-03-02T15:44:46.897Z,11.23
2023-03-02T15:47:11.100Z,13.97
2023-03-02T15:49:33.364Z,13.93
2023-03-02T15:51:57.721Z,13.47
2023-03-02T15:54:20.745Z,11.73
2023-03-02T15:56:45.276Z,14.93
2023-03-02T15:59:08.329Z,17.27
2023-03-02T16:01:30.554Z,13.17
2023-03-02T16:03:54.083Z,12.60
2023-03-02T16:06:16.675Z,11.30
2023-03-02T16:08:39.135Z,12.10
2023-03-02T16:11:03.174Z,11.13
2023-03-02T16:13:25.560Z,12.60
2023-03-02T16:15:47.791Z,13.70
2023-03-02T16:18:11.118Z,14.13
2023-03-02T16:20:34.970Z,11.93
2023-03-02T16:22:57.678Z,12.27
2023-03-02T16:25:20.305Z,12.47
2023-03-02T16:27:47.041Z,12.67
2023-03-02T16:30:09.694Z,14.03
2023-03-02T16:32:34.002Z,17.23
2023-03-02T16:34:56.292Z,14.07
2023-03-02T16:37:19.294Z,14.70
2023-03-02T16:39:42.292Z,13.07
2023-03-02T16:42:04.890Z,12.40
2023-03-02T16:44:27.290Z,13.67
2023-03-02T16:46:49.715Z,12.27
2023-03-02T16:49:13.217Z,13.57
2023-03-02T16:51:35.416Z,11.60
2023-03-02T16:53:57.716Z,12.67
2023-03-02T16:56:20.326Z,14.30
2023-03-02T16:58:42.835Z,12.97
2023-03-02T17:01:06.092Z,15.20
2023-03-02T17:03:30.207Z,13.77
2023-03-02T17:05:53.168Z,12.70
2023-03-02T17:08:16.485Z,11.57
2023-03-02T17:10:40.741Z,15.13
2023-03-02T17:13:03.400Z,13.30
2023-03-02T17:15:37.500Z,12.63
2023-03-02T17:17:59.789Z,14.93
2023-03-02T17:20:22.828Z,13.17
2023-03-02T17:22:45.197Z,11.43
2023-03-02T17:25:08.916Z,12.23
2023-03-02T17:27:31.174Z,10.37
2023-03-02T17:29:54.264Z,14.93
2023-03-02T17:32:16.564Z,13.23
2023-03-02T17:34:39.318Z,15.87
2023-03-02T17:37:01.653Z,13.47
2023-03-02T17:39:24.453Z,12.90
2023-03-02T17:41:46.798Z,13.07
2023-03-02T17:44:08.998Z,13.03
2023-03-02T17:46:34.381Z,12.37
2023-03-02T17:48:58.330Z,14.83
2023-03-02T17:51:21.710Z,14.13
2023-03-02T17:53:45.270Z,14.10
2023-03-02T17:56:08.341Z,17.27
2023-03-02T17:58:44.336Z,14.27
2023-03-02T18:01:08.066Z,10.60
2023-03-02T18:03:30.650Z,11.07
2023-03-02T18:05:53.197Z,15.17
2023-03-02T18:08:15.548Z,12.97
2023-03-02T18:10:39.325Z,12.13
2023-03-02T18:13:01.693Z,13.70
2023-03-02T18:15:27.072Z,15.97
2023-03-02T18:17:50.560Z,12.37
2023-03-02T18:20:13.950Z,15.07
2023-03-02T18:22:36.346Z,16.13
2023-03-02T18:24:58.748Z,16.43
2023-03-02T18:27:32.649Z,16.53
2023-03-02T18:29:57.490Z,13.17
2023-03-02T18:32:20.056Z,13.07
2023-03-02T18:34:42.528Z,16.43
2023-03-02T18:37:38.214Z,14.03
2023-03-02T18:40:01.424Z,12.87
2023-03-02T18:42:26.296Z,11.77
2023-03-02T18:44:49.438Z,14.30
2023-03-02T18:47:16.115Z,14.53
2023-03-02T18:49:42.734Z,17.43
2023-03-02T18:52:08.523Z,15.60
2023-03-02T18:54:33.182Z,18.43
2023-03-02T18:57:01.236Z,14.33
2023-03-02T18:59:23.576Z,18.33
2023-03-02T19:01:46.370Z,16.40
2023-03-02T19:04:18.677Z,16.77
2023-03-02T19:06:43.106Z,14.60
2023-03-02T19:09:05.356Z,14.87
2023-03-02T19:11:29.490Z,14.53
2023-03-02T19:13:51.933Z,18.07
2023-03-02T19:16:15.019Z,15.93
2023-03-02T19:18:38.029Z,15.53
2023-03-02T19:21:04.355Z,13.90
2023-03-02T19:23:27.440Z,17.40
2023-03-02T19:25:50.042Z,16.50
2023-03-02T19:28:16.638Z,15.33
2023-03-02T19:30:40.148Z,14.47
2023-03-02T19:33:03.629Z,14.13
2023-03-02T19:35:32.394Z,13.87
2023-03-02T19:37:59.442Z,14.93
2023-03-02T19:40:24.674Z,16.10
2023-03-02T19:42:47.690Z,15.30
2023-03-02T19:45:12.517Z,16.43
2023-03-02T19:47:34.791Z,15.47
2023-03-02T19:49:57.035Z,15.57
2023-03-02T19:52:19.383Z,18.70
2023-03-02T19:54:43.501Z,15.70
2023-03-02T19:57:07.788Z,17.70
2023-03-02T19:59:32.535Z,18.70
2023-03-02T20:01:56.862Z,14.73
2023-03-02T20:04:21.019Z,14.10
2023-03-02T20:06:43.861Z,14.27
2023-03-02T20:09:08.241Z,15.10
2023-03-02T20:11:32.727Z,18.63
2023-03-02T20:13:57.413Z,16.43
2023-03-02T20:16:23.011Z,14.17
2023-03-02T20:18:46.409Z,13.13
2023-03-02T20:21:08.892Z,14.50
2023-03-02T20:23:31.270Z,15.13
2023-03-02T20:25:54.745Z,19.27
2023-03-02T20:28:19.038Z,17.10
2023-03-02T20:31:01.908Z,18.67
2023-03-02T20:33:35.900Z,18.37
2023-03-02T20:36:00.686Z,20.73
2023-03-02T20:38:28.749Z,23.67
2023-03-02T20:40:52.013Z,20.07
2023-03-02T20:43:14.848Z,18.97
2023-03-02T20:45:37.667Z,17.80
2023-03-02T20:47:59.997Z,19.37
2023-03-02T20:50:23.490Z,19.70
2023-03-02T20:52:46.314Z,14.93
2023-03-02T20:55:09.301Z,16.60
2023-03-02T20:57:31.920Z,18.17
2023-03-02T20:59:55.792Z,17.97
2023-03-02T21:02:19.258Z,20.80
2023-03-02T21:04:43.899Z,19.43
2023-03-02T21:07:06.454Z,17.03
2023-03-02T21:09:29.284Z,16.97
2023-03-02T21:11:51.663Z,19.33
2023-03-02T21:14:14.397Z,16.63
2023-03-02T21:16:39.192Z,17.60
2023-03-02T21:19:03.229Z,24.37
2023-03-02T21:21:40.580Z,62.70
2023-03-02T21:24:06.522Z,57.23
2023-03-02T21:26:45.304Z,35.80
2023-03-02T21:29:10.308Z,18.90
2023-03-02T21:31:33.329Z,17.33
2023-03-02T21:33:56.101Z,15.97
2023-03-02T21:36:22.843Z,15.07
2023-03-02T21:38:51.134Z,14.87
2023-03-02T21:41:14.461Z,14.17
2023-03-02T21:43:36.812Z,14.50
2023-03-02T21:46:01.336Z,13.93
2023-03-02T21:48:23.668Z,16.83
2023-03-02T21:50:46.136Z,17.37
2023-03-02T21:53:09.530Z,17.57
2023-03-02T21:55:32.040Z,13.53
2023-03-02T21:57:54.430Z,17.87
2023-03-02T22:00:25.197Z,21.70
2023-03-02T22:02:47.580Z,15.90
2023-03-02T22:05:10.117Z,13.97
2023-03-02T22:07:32.760Z,16.27
2023-03-02T22:09:55.211Z,13.80
2023-03-02T22:12:18.667Z,17.97
2023-03-02T22:14:41.470Z,16.23
2023-03-02T22:17:13.670Z,16.70
2023-03-02T22:19:38.776Z,15.83
2023-03-02T22:22:03.388Z,17.17
2023-03-02T22:24:27.674Z,17.80
2023-03-02T22:26:54.706Z,15.60
2023-03-02T22:29:19.051Z,15.43
2023-03-02T22:31:49.548Z,14.07
2023-03-02T22:34:20.683Z,15.47
2023-03-02T22:36:44.346Z,17.83
2023-03-02T22:39:07.868Z,18.53
2023-03-02T22:41:39.646Z,16.53
2023-03-02T22:44:03.382Z,16.70
2023-03-02T22:46:46.058Z,16.13
2023-03-02T22:49:17.162Z,14.97
2023-03-02T22:51:39.814Z,16.27
2023-03-02T22:56:52.386Z,18.57
2023-03-02T22:59:27.667Z,15.33
2023-03-02T23:01:50.553Z,15.27
2023-03-02T23:04:25.452Z,21.27
2023-03-02T23:10:25.530Z,15.07
2023-03-02T23:12:51.193Z,16.93
2023-03-02T23:15:18.261Z,17.37
2023-03-02T23:17:52.177Z,16.00
2023-03-02T23:20:16.414Z,18.93
2023-03-02T23:22:45.485Z,19.57
2023-03-02T23:25:08.780Z,16.90
2023-03-02T23:27:50.289Z,17.43
2023-03-02T23:30:24.095Z,18.33
2023-03-02T23:32:47.858Z,18.57
2023-03-02T23:35:13.545Z,16.63
2023-03-02T23:37:35.930Z,16.10
2023-03-02T23:39:58.360Z,16.57
2023-03-02T23:42:26.296Z,17.63
2023-03-02T23:44:48.662Z,88.87
2023-03-02T23:47:10.980Z,56.43
2023-03-02T23:49:33.749Z,61.40
2023-03-02T23:51:56.237Z,52.53
2023-03-02T23:54:18.699Z,30.00
2023-03-02T23:56:40.998Z,21.60
2023-03-02T23:59:03.911Z,16.37
